Terminal Aerodrome Forecast
Issued by NWS

Home | Current Version | Previous Version | Text Only | Print | Product List | Glossary On
Versions: 1 2 3 4 5 6 7 8 9 10 11 12 13 14
000
FTAK31 PAJN 010540
TAFAGY
TAF
PAGY 010540Z 0106/0206 20015KT P6SM OVC120
     FM011200 20006KT P6SM VCSH BKN060 OVC100
     FM011800 21012KT P6SM VCSH OVC060
     FM012100 21015G25KT P6SM VCSH SCT035 OVC060
      AMD LTD TO CLD VIS AND WIND=

USA.gov is the U.S. government's official web portal to all federal, state and local government web resources and services.